Bayamón, Puerto Rico

6:29 PM AST on February 10, 2016 (GMT -0400)
Garden Hills Sur | | Change Station
CLOSE
Current Station
Personal Weather Station
Location: Guaynabo, GUAYNABO
Elevation: 89 ft
Nearby Weather Stations

Elev 89 ft 18.40 °N, 66.11 °W | Updated 1 minute ago

Scattered Clouds
Scattered Clouds
80.8 °F
Feels Like 83 °F
N
4.7
Wind Variable Wind from ESE

Today
High -- | Low -- °F
--% Chance of Precip.
Yesterday
High -- | Low -- °F
Precip. -- in
Pressure 30.06 in
Visibility 10.0 miles
Clouds Few 3000 ft
Scattered Clouds 5000 ft
Heat Index 83 °F
Dew Point 68 °F
Humidity 64%
Rainfall 0.17 in
Snow Depth Not available.
6:54 AM 6:22 PM
Waxing Crescent, 7% visible
METAR TJSJ 102156Z 09010KT 10SM FEW030 SCT050 27/21 A3006 RMK AO2 SLP178 T02720206
Pressure 30.06 in
Visibility 10.0 miles
Clouds Few 3000 ft
Scattered Clouds 5000 ft
Heat Index 83 °F
Dew Point 68 °F
Humidity 64%
Rainfall 0.17 in
Snow Depth Not available.
6:54 AM 6:22 PM
Waxing Crescent, 7% visible
METAR TJSJ 102156Z 09010KT 10SM FEW030 SCT050 27/21 A3006 RMK AO2 SLP178 T02720206

10-Day Weather Forecast

Almanac

Astronomy

Feb. 10, 2016 Rise Set
Actual Time
Civil Twilight
Nautical Twilight
Astronomical Twilight
Moon
Length of Visible Light
Length of Day
Tomorrow will be .
, % of the Moon is Illuminated

Today's Extremes

Country Highs Country Lows

Community

WunderPhotos

Upload Photos

1,891,952 photos uploaded!

WunderBlog® & News

Nearby

Air Quality

  Air Quality AQ Index Pollutant
Not available.

Snow Depth

Station Depth Elevation

Earthquake Activity

City Distance Mag. Time & Date
Minimum magnitude displayed is 2.5.

Coastal Water Temperatures

Place Temperature

Stations

Nearby Weather Stations

Station Location Temp. Windchill Dew Point Humidity Wind Precip. Elev Updated Type